sensor_id;sensor_type;location;lat;lon;timestamp;pressure;altitude;pressure_sealevel;temperature;humidity
21395;BME280;10858;42.714;23.180;2022-11-20T00:01:15;93667.28;;;18.74;59.19
21395;BME280;10858;42.714;23.180;2022-11-20T00:03:42;93664.63;;;18.87;59.21
21395;BME280;10858;42.714;23.180;2022-11-20T00:06:13;93662.72;;;18.81;59.19
21395;BME280;10858;42.714;23.180;2022-11-20T00:08:40;93672.25;;;18.83;59.88
21395;BME280;10858;42.714;23.180;2022-11-20T00:11:08;93670.19;;;18.85;59.32
21395;BME280;10858;42.714;23.180;2022-11-20T00:13:35;93649.31;;;18.81;59.52
21395;BME280;10858;42.714;23.180;2022-11-20T00:16:03;93659.28;;;18.93;59.49
21395;BME280;10858;42.714;23.180;2022-11-20T00:18:30;93661.72;;;18.82;59.43
21395;BME280;10858;42.714;23.180;2022-11-20T00:21:07;93658.81;;;18.83;59.66
21395;BME280;10858;42.714;23.180;2022-11-20T00:23:34;93663.78;;;18.86;59.83
21395;BME280;10858;42.714;23.180;2022-11-20T00:26:05;93668.53;;;18.84;59.41
21395;BME280;10858;42.714;23.180;2022-11-20T00:28:31;93668.28;;;18.73;60.25
21395;BME280;10858;42.714;23.180;2022-11-20T00:33:28;93676.59;;;18.78;60.20
21395;BME280;10858;42.714;23.180;2022-11-20T00:36:00;93686.91;;;18.81;60.48
21395;BME280;10858;42.714;23.180;2022-11-20T00:38:27;93669.84;;;18.47;60.61
21395;BME280;10858;42.714;23.180;2022-11-20T00:40:57;93678.16;;;18.59;60.87
21395;BME280;10858;42.714;23.180;2022-11-20T00:43:24;93692.63;;;18.58;61.21
21395;BME280;10858;42.714;23.180;2022-11-20T00:45:55;93683.75;;;18.64;61.32
21395;BME280;10858;42.714;23.180;2022-11-20T00:48:21;93674.88;;;18.70;61.18
21395;BME280;10858;42.714;23.180;2022-11-20T00:50:47;93670.78;;;18.33;61.92
21395;BME280;10858;42.714;23.180;2022-11-20T00:53:14;93686.91;;;18.40;62.30
21395;BME280;10858;42.714;23.180;2022-11-20T00:55:41;93681.75;;;18.38;62.59
21395;BME280;10858;42.714;23.180;2022-11-20T00:58:07;93684.22;;;18.33;62.72
21395;BME280;10858;42.714;23.180;2022-11-20T01:00:33;93676.97;;;18.27;62.88
21395;BME280;10858;42.714;23.180;2022-11-20T01:03:00;93669.38;;;18.37;62.49
21395;BME280;10858;42.714;23.180;2022-11-20T01:05:26;93661.53;;;18.42;62.86
21395;BME280;10858;42.714;23.180;2022-11-20T01:07:52;93660.22;;;18.32;63.07
21395;BME280;10858;42.714;23.180;2022-11-20T01:10:18;93653.25;;;18.37;63.21
21395;BME280;10858;42.714;23.180;2022-11-20T01:12:44;93651.97;;;18.27;63.33
21395;BME280;10858;42.714;23.180;2022-11-20T01:15:30;93632.94;;;18.28;63.28
21395;BME280;10858;42.714;23.180;2022-11-20T01:17:59;93627.78;;;18.27;63.33
21395;BME280;10858;42.714;23.180;2022-11-20T01:20:25;93623.22;;;18.21;63.47
21395;BME280;10858;42.714;23.180;2022-11-20T01:22:51;93622.63;;;18.25;63.46
21395;BME280;10858;42.714;23.180;2022-11-20T01:25:17;93630.44;;;18.20;63.54
21395;BME280;10858;42.714;23.180;2022-11-20T01:27:43;93625.16;;;18.33;62.95
21395;BME280;10858;42.714;23.180;2022-11-20T01:30:10;93614.16;;;18.28;62.68
21395;BME280;10858;42.714;23.180;2022-11-20T01:32:36;93621.84;;;18.38;62.35
21395;BME280;10858;42.714;23.180;2022-11-20T01:35:02;93614.00;;;18.36;62.40
21395;BME280;10858;42.714;23.180;2022-11-20T01:37:29;93624.00;;;18.49;61.56
21395;BME280;10858;42.714;23.180;2022-11-20T01:39:56;93618.97;;;18.39;61.49
21395;BME280;10858;42.714;23.180;2022-11-20T01:42:22;93614.47;;;18.46;61.37
21395;BME280;10858;42.714;23.180;2022-11-20T01:48:10;93614.22;;;18.41;60.30
21395;BME280;10858;42.714;23.180;2022-11-20T01:50:37;93622.78;;;18.51;60.42
21395;BME280;10858;42.714;23.180;2022-11-20T01:53:06;93629.78;;;18.52;60.67
21395;BME280;10858;42.714;23.180;2022-11-20T01:55:41;93617.59;;;18.56;60.62
21395;BME280;10858;42.714;23.180;2022-11-20T01:58:09;93626.09;;;18.53;60.66
21395;BME280;10858;42.714;23.180;2022-11-20T02:00:35;93636.81;;;18.53;60.71
21395;BME280;10858;42.714;23.180;2022-11-20T02:03:05;93616.00;;;18.68;59.90
21395;BME280;10858;42.714;23.180;2022-11-20T02:05:44;93618.66;;;18.55;59.97
21395;BME280;10858;42.714;23.180;2022-11-20T02:08:13;93609.53;;;18.43;59.90
21395;BME280;10858;42.714;23.180;2022-11-20T02:10:40;93612.75;;;18.39;60.40
21395;BME280;10858;42.714;23.180;2022-11-20T02:13:06;93614.88;;;18.43;60.62
21395;BME280;10858;42.714;23.180;2022-11-20T02:15:51;93614.00;;;18.36;60.73
21395;BME280;10858;42.714;23.180;2022-11-20T02:18:19;93621.06;;;18.44;60.38
21395;BME280;10858;42.714;23.180;2022-11-20T02:20:48;93634.31;;;18.45;60.27
21395;BME280;10858;42.714;23.180;2022-11-20T02:23:52;93629.72;;;18.39;59.84
21395;BME280;10858;42.714;23.180;2022-11-20T02:26:20;93630.66;;;18.59;59.49
21395;BME280;10858;42.714;23.180;2022-11-20T02:28:48;93625.28;;;18.66;59.30
21395;BME280;10858;42.714;23.180;2022-11-20T02:31:14;93621.16;;;18.63;58.66
21395;BME280;10858;42.714;23.180;2022-11-20T02:33:41;93630.81;;;18.58;59.59
21395;BME280;10858;42.714;23.180;2022-11-20T02:36:09;93631.72;;;18.72;59.46
21395;BME280;10858;42.714;23.180;2022-11-20T02:38:37;93651.34;;;18.65;59.75
21395;BME280;10858;42.714;23.180;2022-11-20T02:41:03;93648.81;;;18.57;59.85
21395;BME280;10858;42.714;23.180;2022-11-20T02:43:30;93646.59;;;18.67;59.60
21395;BME280;10858;42.714;23.180;2022-11-20T02:45:56;93642.22;;;18.66;59.73
21395;BME280;10858;42.714;23.180;2022-11-20T02:48:22;93657.50;;;18.66;60.09
21395;BME280;10858;42.714;23.180;2022-11-20T02:50:48;93620.91;;;18.58;59.44
21395;BME280;10858;42.714;23.180;2022-11-20T02:53:15;93634.78;;;18.55;60.09
21395;BME280;10858;42.714;23.180;2022-11-20T02:55:41;93642.81;;;18.55;60.17
21395;BME280;10858;42.714;23.180;2022-11-20T02:58:07;93629.09;;;18.37;60.91
21395;BME280;10858;42.714;23.180;2022-11-20T03:00:33;93634.47;;;18.37;61.08
21395;BME280;10858;42.714;23.180;2022-11-20T03:03:01;93633.00;;;18.35;61.35
21395;BME280;10858;42.714;23.180;2022-11-20T03:05:27;93632.94;;;18.28;61.63
21395;BME280;10858;42.714;23.180;2022-11-20T03:07:53;93632.13;;;18.28;61.81
21395;BME280;10858;42.714;23.180;2022-11-20T03:10:19;93640.78;;;18.23;61.80
21395;BME280;10858;42.714;23.180;2022-11-20T03:12:46;93644.22;;;18.11;62.41
21395;BME280;10858;42.714;23.180;2022-11-20T03:15:12;93634.50;;;18.10;62.47
21395;BME280;10858;42.714;23.180;2022-11-20T03:17:38;93649.56;;;18.04;62.73
21395;BME280;10858;42.714;23.180;2022-11-20T03:20:05;93640.34;;;18.13;62.68
21395;BME280;10858;42.714;23.180;2022-11-20T03:22:31;93632.44;;;18.12;62.68
21395;BME280;10858;42.714;23.180;2022-11-20T03:24:58;93629.75;;;18.05;63.02
21395;BME280;10858;42.714;23.180;2022-11-20T03:27:24;93646.03;;;17.97;63.72
21395;BME280;10858;42.714;23.180;2022-11-20T03:29:50;93650.13;;;17.93;63.56
21395;BME280;10858;42.714;23.180;2022-11-20T03:32:16;93632.81;;;17.96;63.54
21395;BME280;10858;42.714;23.180;2022-11-20T03:34:42;93641.06;;;18.01;62.63
21395;BME280;10858;42.714;23.180;2022-11-20T03:37:09;93625.81;;;18.01;62.92
21395;BME280;10858;42.714;23.180;2022-11-20T03:39:35;93637.59;;;18.07;62.33
21395;BME280;10858;42.714;23.180;2022-11-20T03:42:01;93646.09;;;18.10;62.44
21395;BME280;10858;42.714;23.180;2022-11-20T03:44:27;93650.97;;;18.00;62.84
21395;BME280;10858;42.714;23.180;2022-11-20T03:46:53;93653.91;;;18.05;62.44
21395;BME280;10858;42.714;23.180;2022-11-20T03:49:20;93649.50;;;17.91;63.03
21395;BME280;10858;42.714;23.180;2022-11-20T03:51:46;93659.81;;;17.88;63.03
21395;BME280;10858;42.714;23.180;2022-11-20T03:54:12;93658.38;;;17.92;62.63
21395;BME280;10858;42.714;23.180;2022-11-20T03:56:38;93668.03;;;17.86;62.84
21395;BME280;10858;42.714;23.180;2022-11-20T03:59:06;93670.47;;;17.81;63.27
21395;BME280;10858;42.714;23.180;2022-11-20T04:01:34;93669.06;;;17.85;63.38
21395;BME280;10858;42.714;23.180;2022-11-20T04:04:02;93660.13;;;17.78;63.60
21395;BME280;10858;42.714;23.180;2022-11-20T04:06:32;93655.22;;;17.81;63.68
21395;BME280;10858;42.714;23.180;2022-11-20T04:08:59;93654.91;;;17.70;63.73
21395;BME280;10858;42.714;23.180;2022-11-20T04:11:28;93650.38;;;17.70;64.02
21395;BME280;10858;42.714;23.180;2022-11-20T04:13:57;93638.72;;;17.57;64.56
21395;BME280;10858;42.714;23.180;2022-11-20T04:16:25;93648.28;;;17.66;64.01
21395;BME280;10858;42.714;23.180;2022-11-20T04:18:56;93643.03;;;17.51;64.07
21395;BME280;10858;42.714;23.180;2022-11-20T04:21:23;93643.38;;;17.76;63.46
21395;BME280;10858;42.714;23.180;2022-11-20T04:23:50;93652.44;;;17.68;63.64
21395;BME280;10858;42.714;23.180;2022-11-20T04:26:17;93636.44;;;17.54;63.18
21395;BME280;10858;42.714;23.180;2022-11-20T04:28:43;93641.69;;;17.68;62.92
21395;BME280;10858;42.714;23.180;2022-11-20T04:31:12;93652.06;;;17.78;62.74
21395;BME280;10858;42.714;23.180;2022-11-20T04:33:39;93658.47;;;17.77;62.07
21395;BME280;10858;42.714;23.180;2022-11-20T04:36:11;93651.75;;;17.94;61.98
21395;BME280;10858;42.714;23.180;2022-11-20T04:38:38;93652.56;;;17.88;62.35
21395;BME280;10858;42.714;23.180;2022-11-20T04:41:06;93653.31;;;17.75;62.92
21395;BME280;10858;42.714;23.180;2022-11-20T04:43:33;93641.91;;;17.67;63.42
21395;BME280;10858;42.714;23.180;2022-11-20T04:46:00;93646.00;;;17.63;63.70
21395;BME280;10858;42.714;23.180;2022-11-20T04:48:27;93656.63;;;17.77;63.59
21395;BME280;10858;42.714;23.180;2022-11-20T04:50:54;93642.91;;;17.66;63.85
21395;BME280;10858;42.714;23.180;2022-11-20T04:53:22;93640.22;;;17.66;64.14
21395;BME280;10858;42.714;23.180;2022-11-20T04:55:48;93633.59;;;17.62;64.04
21395;BME280;10858;42.714;23.180;2022-11-20T04:58:16;93631.25;;;17.52;64.69
21395;BME280;10858;42.714;23.180;2022-11-20T05:00:42;93631.41;;;17.72;64.18
21395;BME280;10858;42.714;23.180;2022-11-20T05:03:09;93630.38;;;17.73;64.53
21395;BME280;10858;42.714;23.180;2022-11-20T05:05:35;93619.38;;;17.61;64.77
21395;BME280;10858;42.714;23.180;2022-11-20T05:08:01;93616.50;;;17.63;65.09
21395;BME280;10858;42.714;23.180;2022-11-20T05:10:28;93620.84;;;17.43;65.54
21395;BME280;10858;42.714;23.180;2022-11-20T05:12:54;93608.75;;;17.26;66.21
21395;BME280;10858;42.714;23.180;2022-11-20T05:15:20;93617.91;;;17.38;65.68
21395;BME280;10858;42.714;23.180;2022-11-20T05:17:49;93630.84;;;17.49;65.86
21395;BME280;10858;42.714;23.180;2022-11-20T05:20:15;93626.16;;;17.36;66.42
21395;BME280;10858;42.714;23.180;2022-11-20T05:22:42;93631.94;;;17.33;66.62
21395;BME280;10858;42.714;23.180;2022-11-20T05:25:09;93621.28;;;17.19;67.30
21395;BME280;10858;42.714;23.180;2022-11-20T05:27:35;93634.41;;;17.35;67.24
21395;BME280;10858;42.714;23.180;2022-11-20T05:30:02;93617.69;;;17.12;68.53
21395;BME280;10858;42.714;23.180;2022-11-20T05:32:29;93618.94;;;17.09;68.58
21395;BME280;10858;42.714;23.180;2022-11-20T05:34:55;93622.56;;;17.01;69.27
21395;BME280;10858;42.714;23.180;2022-11-20T05:37:21;93619.50;;;17.05;69.17
21395;BME280;10858;42.714;23.180;2022-11-20T05:39:47;93626.50;;;17.06;69.11
21395;BME280;10858;42.714;23.180;2022-11-20T05:42:13;93631.19;;;16.97;69.88
21395;BME280;10858;42.714;23.180;2022-11-20T05:45:03;93617.72;;;16.90;70.07
21395;BME280;10858;42.714;23.180;2022-11-20T05:47:33;93622.56;;;17.01;69.55
21395;BME280;10858;42.714;23.180;2022-11-20T05:50:00;93622.94;;;16.98;69.04
21395;BME280;10858;42.714;23.180;2022-11-20T05:52:29;93630.88;;;17.07;68.98
21395;BME280;10858;42.714;23.180;2022-11-20T05:54:55;93635.00;;;17.09;68.94
21395;BME280;10858;42.714;23.180;2022-11-20T05:57:21;93631.09;;;17.12;68.98
21395;BME280;10858;42.714;23.180;2022-11-20T05:59:48;93638.00;;;16.99;68.93
21395;BME280;10858;42.714;23.180;2022-11-20T06:02:14;93649.84;;;17.12;68.61
21395;BME280;10858;42.714;23.180;2022-11-20T06:04:40;93654.44;;;17.18;68.71
21395;BME280;10858;42.714;23.180;2022-11-20T06:07:06;93654.50;;;17.24;68.21
21395;BME280;10858;42.714;23.180;2022-11-20T06:09:33;93658.28;;;17.30;68.29
21395;BME280;10858;42.714;23.180;2022-11-20T06:11:59;93658.13;;;17.38;67.73
21395;BME280;10858;42.714;23.180;2022-11-20T06:14:25;93653.03;;;17.43;68.11
21395;BME280;10858;42.714;23.180;2022-11-20T06:16:52;93666.66;;;17.48;67.63
21395;BME280;10858;42.714;23.180;2022-11-20T06:19:18;93676.34;;;17.63;67.65
21395;BME280;10858;42.714;23.180;2022-11-20T06:21:44;93662.31;;;17.68;67.46
21395;BME280;10858;42.714;23.180;2022-11-20T06:24:11;93674.56;;;17.77;67.21
21395;BME280;10858;42.714;23.180;2022-11-20T06:26:37;93681.44;;;17.86;66.63
21395;BME280;10858;42.714;23.180;2022-11-20T06:29:03;93664.41;;;18.00;66.03
21395;BME280;10858;42.714;23.180;2022-11-20T06:31:29;93659.19;;;17.92;66.25
21395;BME280;10858;42.714;23.180;2022-11-20T06:33:58;93655.25;;;17.88;66.08
21395;BME280;10858;42.714;23.180;2022-11-20T06:36:24;93666.97;;;18.15;65.57
21395;BME280;10858;42.714;23.180;2022-11-20T06:38:51;93668.69;;;18.29;65.30
21395;BME280;10858;42.714;23.180;2022-11-20T06:41:20;93681.38;;;18.41;64.63
21395;BME280;10858;42.714;23.180;2022-11-20T06:43:47;93676.97;;;18.27;65.32
21395;BME280;10858;42.714;23.180;2022-11-20T06:46:15;93685.81;;;18.55;64.03
21395;BME280;10858;42.714;23.180;2022-11-20T06:48:43;93688.06;;;18.58;64.19
21395;BME280;10858;42.714;23.180;2022-11-20T06:51:10;93684.00;;;18.35;64.77
21395;BME280;10858;42.714;23.180;2022-11-20T06:53:36;93688.97;;;18.31;63.79
21395;BME280;10858;42.714;23.180;2022-11-20T06:56:03;93677.72;;;18.49;64.36
21395;BME280;10858;42.714;23.180;2022-11-20T06:58:32;93676.06;;;18.54;63.55
21395;BME280;10858;42.714;23.180;2022-11-20T07:00:59;93678.41;;;18.30;63.77
21395;BME280;10858;42.714;23.180;2022-11-20T07:03:26;93703.22;;;18.38;64.28
21395;BME280;10858;42.714;23.180;2022-11-20T07:05:55;93696.44;;;18.42;64.16
21395;BME280;10858;42.714;23.180;2022-11-20T07:08:22;93696.59;;;18.34;64.53
21395;BME280;10858;42.714;23.180;2022-11-20T07:10:48;93706.19;;;18.09;65.34
21395;BME280;10858;42.714;23.180;2022-11-20T07:13:14;93720.13;;;17.98;66.19
21395;BME280;10858;42.714;23.180;2022-11-20T07:15:41;93718.22;;;17.92;66.99
21395;BME280;10858;42.714;23.180;2022-11-20T07:18:07;93719.13;;;18.06;66.48
21395;BME280;10858;42.714;23.180;2022-11-20T07:20:33;93725.97;;;18.08;66.48
21395;BME280;10858;42.714;23.180;2022-11-20T07:22:59;93717.28;;;18.06;66.34
21395;BME280;10858;42.714;23.180;2022-11-20T07:25:27;93720.91;;;17.92;67.11
21395;BME280;10858;42.714;23.180;2022-11-20T07:27:57;93709.00;;;18.01;66.76
21395;BME280;10858;42.714;23.180;2022-11-20T07:30:24;93720.47;;;17.89;66.70
21395;BME280;10858;42.714;23.180;2022-11-20T07:32:55;93713.63;;;17.86;66.47
21395;BME280;10858;42.714;23.180;2022-11-20T07:35:22;93718.22;;;17.92;67.08
21395;BME280;10858;42.714;23.180;2022-11-20T07:37:49;93720.31;;;17.97;66.97
21395;BME280;10858;42.714;23.180;2022-11-20T07:40:16;93711.97;;;18.13;66.40
21395;BME280;10858;42.714;23.180;2022-11-20T07:42:53;93719.63;;;18.16;65.92
21395;BME280;10858;42.714;23.180;2022-11-20T07:45:21;93724.06;;;17.96;66.75
21395;BME280;10858;42.714;23.180;2022-11-20T07:47:47;93720.22;;;18.11;66.26
21395;BME280;10858;42.714;23.180;2022-11-20T07:50:14;93725.13;;;18.35;65.53
21395;BME280;10858;42.714;23.180;2022-11-20T07:52:40;93731.66;;;18.26;65.54
21395;BME280;10858;42.714;23.180;2022-11-20T07:55:07;93725.31;;;18.61;64.55
21395;BME280;10858;42.714;23.180;2022-11-20T07:57:33;93735.47;;;18.38;64.83
21395;BME280;10858;42.714;23.180;2022-11-20T07:59:59;93745.44;;;18.44;64.67
21395;BME280;10858;42.714;23.180;2022-11-20T08:02:26;93747.06;;;18.73;63.83
21395;BME280;10858;42.714;23.180;2022-11-20T08:04:52;93740.13;;;18.92;63.12
21395;BME280;10858;42.714;23.180;2022-11-20T08:07:18;93743.91;;;18.63;63.99
21395;BME280;10858;42.714;23.180;2022-11-20T08:09:44;93744.88;;;18.90;64.08
21395;BME280;10858;42.714;23.180;2022-11-20T08:12:18;93729.66;;;19.23;62.85
21395;BME280;10858;42.714;23.180;2022-11-20T08:15:04;93734.09;;;18.96;64.49
21395;BME280;10858;42.714;23.180;2022-11-20T08:17:30;93736.94;;;18.41;65.76
21395;BME280;10858;42.714;23.180;2022-11-20T08:19:57;93732.25;;;18.49;66.21
21395;BME280;10858;42.714;23.180;2022-11-20T08:22:23;93737.50;;;18.36;67.08
21395;BME280;10858;42.714;23.180;2022-11-20T08:24:50;93742.94;;;18.77;65.75
21395;BME280;10858;42.714;23.180;2022-11-20T08:27:16;93758.31;;;18.90;65.99
21395;BME280;10858;42.714;23.180;2022-11-20T08:29:43;93760.91;;;18.77;67.86
21395;BME280;10858;42.714;23.180;2022-11-20T08:32:09;93756.94;;;18.38;69.85
21395;BME280;10858;42.714;23.180;2022-11-20T08:34:35;93752.47;;;17.90;72.73
21395;BME280;10858;42.714;23.180;2022-11-20T08:37:02;93766.38;;;17.72;73.59
21395;BME280;10858;42.714;23.180;2022-11-20T08:39:29;93774.69;;;17.42;73.64
21395;BME280;10858;42.714;23.180;2022-11-20T08:41:55;93760.94;;;17.45;75.25
21395;BME280;10858;42.714;23.180;2022-11-20T08:44:21;93783.84;;;17.12;77.42
21395;BME280;10858;42.714;23.180;2022-11-20T08:46:47;93793.34;;;16.93;78.71
21395;BME280;10858;42.714;23.180;2022-11-20T08:49:14;93802.72;;;16.53;81.25
21395;BME280;10858;42.714;23.180;2022-11-20T08:51:41;93794.75;;;16.45;81.70
21395;BME280;10858;42.714;23.180;2022-11-20T08:54:08;93799.56;;;16.50;82.64
21395;BME280;10858;42.714;23.180;2022-11-20T08:56:34;93796.41;;;16.46;82.71
21395;BME280;10858;42.714;23.180;2022-11-20T08:59:01;93792.56;;;16.63;82.78
21395;BME280;10858;42.714;23.180;2022-11-20T09:01:28;93782.56;;;16.72;82.39
21395;BME280;10858;42.714;23.180;2022-11-20T09:03:58;93794.31;;;16.56;82.56
21395;BME280;10858;42.714;23.180;2022-11-20T09:06:25;93794.09;;;16.43;82.50
21395;BME280;10858;42.714;23.180;2022-11-20T09:08:53;93797.53;;;16.52;83.76
21395;BME280;10858;42.714;23.180;2022-11-20T09:11:19;93803.38;;;16.55;84.18
21395;BME280;10858;42.714;23.180;2022-11-20T09:13:45;93815.81;;;16.63;83.90
21395;BME280;10858;42.714;23.180;2022-11-20T09:16:11;93812.78;;;16.51;83.03
21395;BME280;10858;42.714;23.180;2022-11-20T09:18:38;93811.72;;;16.23;82.08
21395;BME280;10858;42.714;23.180;2022-11-20T09:21:10;93794.28;;;16.27;83.29
21395;BME280;10858;42.714;23.180;2022-11-20T09:23:37;93801.94;;;16.30;83.81
21395;BME280;10858;42.714;23.180;2022-11-20T09:26:13;93805.72;;;16.36;84.04
21395;BME280;10858;42.714;23.180;2022-11-20T09:28:40;93803.44;;;16.76;82.81
21395;BME280;10858;42.714;23.180;2022-11-20T09:31:07;93773.06;;;16.55;83.50
21395;BME280;10858;42.714;23.180;2022-11-20T09:33:34;93767.44;;;16.64;82.39
21395;BME280;10858;42.714;23.180;2022-11-20T09:36:01;93759.28;;;16.72;82.42
21395;BME280;10858;42.714;23.180;2022-11-20T09:38:27;93755.66;;;16.80;81.71
21395;BME280;10858;42.714;23.180;2022-11-20T09:41:19;93748.72;;;16.85;83.38
21395;BME280;10858;42.714;23.180;2022-11-20T09:49:35;93738.66;;;16.87;80.68
21395;BME280;10858;42.714;23.180;2022-11-20T09:54:44;93727.41;;;16.77;79.85
21395;BME280;10858;42.714;23.180;2022-11-20T09:57:26;93727.38;;;16.92;80.66
21395;BME280;10858;42.714;23.180;2022-11-20T09:59:59;93726.66;;;17.19;79.34
21395;BME280;10858;42.714;23.180;2022-11-20T10:05:39;93709.91;;;17.38;76.85
21395;BME280;10858;42.714;23.180;2022-11-20T10:08:21;93717.59;;;17.62;76.31
21395;BME280;10858;42.714;23.180;2022-11-20T10:13:43;93710.22;;;17.71;74.72
21395;BME280;10858;42.714;23.180;2022-11-20T10:16:44;93714.91;;;17.90;72.47
21395;BME280;10858;42.714;23.180;2022-11-20T10:19:54;93724.34;;;18.14;72.83
21395;BME280;10858;42.714;23.180;2022-11-20T10:22:37;93736.59;;;18.50;72.41
21395;BME280;10858;42.714;23.180;2022-11-20T10:30:33;93751.47;;;18.19;75.20
21395;BME280;10858;42.714;23.180;2022-11-20T10:33:09;93762.22;;;17.70;76.28
21395;BME280;10858;42.714;23.180;2022-11-20T10:38:43;93733.41;;;16.79;79.71
21395;BME280;10858;42.714;23.180;2022-11-20T10:41:17;93725.25;;;16.37;82.08
21395;BME280;10858;42.714;23.180;2022-11-20T10:44:20;93718.72;;;15.73;84.71
21395;BME280;10858;42.714;23.180;2022-11-20T10:47:18;93718.03;;;14.74;82.74
21395;BME280;10858;42.714;23.180;2022-11-20T10:49:51;93718.94;;;14.28;84.89
21395;BME280;10858;42.714;23.180;2022-11-20T10:55:30;93751.41;;;13.77;88.31
21395;BME280;10858;42.714;23.180;2022-11-20T11:00:30;93736.25;;;13.53;88.09
21395;BME280;10858;42.714;23.180;2022-11-20T11:02:56;93703.81;;;13.49;87.11
21395;BME280;10858;42.714;23.180;2022-11-20T11:05:50;93713.63;;;13.49;88.36
21395;BME280;10858;42.714;23.180;2022-11-20T11:08:20;93706.97;;;13.45;88.57
21395;BME280;10858;42.714;23.180;2022-11-20T11:10:54;93716.78;;;13.60;88.21
21395;BME280;10858;42.714;23.180;2022-11-20T11:15:50;93705.50;;;13.42;87.44
21395;BME280;10858;42.714;23.180;2022-11-20T11:18:34;93714.97;;;13.37;87.53
21395;BME280;10858;42.714;23.180;2022-11-20T11:21:04;93724.16;;;13.42;87.36
21395;BME280;10858;42.714;23.180;2022-11-20T11:23:42;93718.97;;;13.41;85.49
21395;BME280;10858;42.714;23.180;2022-11-20T11:26:23;93724.09;;;13.67;86.41
21395;BME280;10858;42.714;23.180;2022-11-20T11:29:01;93727.25;;;13.70;85.57
21395;BME280;10858;42.714;23.180;2022-11-20T11:31:33;93731.94;;;13.60;85.33
21395;BME280;10858;42.714;23.180;2022-11-20T11:34:08;93740.41;;;13.63;86.01
21395;BME280;10858;42.714;23.180;2022-11-20T11:36:37;93754.59;;;13.56;86.76
21395;BME280;10858;42.714;23.180;2022-11-20T11:39:05;93755.56;;;13.71;86.39
21395;BME280;10858;42.714;23.180;2022-11-20T11:41:33;93756.75;;;13.69;86.42
21395;BME280;10858;42.714;23.180;2022-11-20T11:44:18;93755.44;;;13.56;86.76
21395;BME280;10858;42.714;23.180;2022-11-20T11:47:05;93757.44;;;13.62;85.24
21395;BME280;10858;42.714;23.180;2022-11-20T11:49:35;93745.75;;;13.72;86.31
21395;BME280;10858;42.714;23.180;2022-11-20T11:52:25;93757.91;;;13.66;86.26
21395;BME280;10858;42.714;23.180;2022-11-20T11:54:59;93762.06;;;13.77;87.15
21395;BME280;10858;42.714;23.180;2022-11-20T11:57:51;93761.41;;;13.83;86.24
21395;BME280;10858;42.714;23.180;2022-11-20T12:00:21;93761.69;;;13.88;86.68
21395;BME280;10858;42.714;23.180;2022-11-20T12:05:27;93761.66;;;14.04;85.29
21395;BME280;10858;42.714;23.180;2022-11-20T12:15:48;93767.66;;;14.06;85.18
21395;BME280;10858;42.714;23.180;2022-11-20T12:18:20;93750.09;;;14.19;84.61
21395;BME280;10858;42.714;23.180;2022-11-20T12:26:52;93772.69;;;14.01;84.75
21395;BME280;10858;42.714;23.180;2022-11-20T12:29:46;93766.69;;;13.99;84.47
21395;BME280;10858;42.714;23.180;2022-11-20T12:32:22;93750.53;;;13.92;84.96
21395;BME280;10858;42.714;23.180;2022-11-20T12:40:42;93747.78;;;14.16;86.54
21395;BME280;10858;42.714;23.180;2022-11-20T12:43:22;93754.94;;;14.32;86.93
21395;BME280;10858;42.714;23.180;2022-11-20T13:05:19;93707.22;;;14.90;80.14
21395;BME280;10858;42.714;23.180;2022-11-20T13:07:47;93707.66;;;15.02;80.78
21395;BME280;10858;42.714;23.180;2022-11-20T13:10:22;93714.94;;;15.08;79.96
21395;BME280;10858;42.714;23.180;2022-11-20T13:18:42;93739.47;;;14.89;81.62
21395;BME280;10858;42.714;23.180;2022-11-20T13:21:22;93741.47;;;14.87;81.31
21395;BME280;10858;42.714;23.180;2022-11-20T13:24:19;93755.72;;;14.71;82.55
21395;BME280;10858;42.714;23.180;2022-11-20T13:27:02;93757.44;;;14.64;82.21
21395;BME280;10858;42.714;23.180;2022-11-20T13:29:29;93755.88;;;14.78;82.96
21395;BME280;10858;42.714;23.180;2022-11-20T13:32:04;93745.78;;;14.88;80.64
21395;BME280;10858;42.714;23.180;2022-11-20T13:34:31;93752.53;;;15.06;79.15
21395;BME280;10858;42.714;23.180;2022-11-20T13:36:59;93740.41;;;15.18;79.92
21395;BME280;10858;42.714;23.180;2022-11-20T13:39:33;93752.41;;;15.00;80.58
21395;BME280;10858;42.714;23.180;2022-11-20T13:42:25;93755.69;;;14.79;80.94
21395;BME280;10858;42.714;23.180;2022-11-20T13:44:53;93751.09;;;14.65;81.19
21395;BME280;10858;42.714;23.180;2022-11-20T13:47:26;93758.25;;;14.73;81.71
21395;BME280;10858;42.714;23.180;2022-11-20T13:49:55;93774.03;;;14.82;80.34
21395;BME280;10858;42.714;23.180;2022-11-20T13:52:55;93768.59;;;14.98;79.99
21395;BME280;10858;42.714;23.180;2022-11-20T13:56:11;93758.88;;;15.05;80.08
21395;BME280;10858;42.714;23.180;2022-11-20T14:01:17;93764.38;;;15.04;79.63
21395;BME280;10858;42.714;23.180;2022-11-20T14:03:46;93762.19;;;14.85;77.79
21395;BME280;10858;42.714;23.180;2022-11-20T14:06:29;93769.31;;;14.92;77.82
21395;BME280;10858;42.714;23.180;2022-11-20T14:08:58;93763.78;;;14.94;76.67
21395;BME280;10858;42.714;23.180;2022-11-20T14:11:26;93769.53;;;14.83;77.18
21395;BME280;10858;42.714;23.180;2022-11-20T14:14:02;93751.50;;;15.07;75.62
21395;BME280;10858;42.714;23.180;2022-11-20T14:16:35;93747.28;;;14.90;78.34
21395;BME280;10858;42.714;23.180;2022-11-20T14:21:53;93738.69;;;14.80;77.97
21395;BME280;10858;42.714;23.180;2022-11-20T14:24:21;93734.97;;;14.81;77.19
21395;BME280;10858;42.714;23.180;2022-11-20T14:26:48;93735.66;;;14.53;78.33
21395;BME280;10858;42.714;23.180;2022-11-20T14:29:22;93740.13;;;14.60;78.25
21395;BME280;10858;42.714;23.180;2022-11-20T14:31:53;93743.59;;;14.69;78.14
21395;BME280;10858;42.714;23.180;2022-11-20T14:34:25;93749.59;;;14.93;77.58